Amistad, New Mexico
Current Conditions -  °F | °C
As of 11:53 AM on Wednesday 26 Nov 2014 (Local Time) from KDHT Reporting Station
Clear Clear  
Wind Chill: 44°   Ceiling: Unl
Heat Index: 47°   Visibility: 10mi
Dew Point: 23°   Wind: 6mph
Humidity: 39%   Direction: 330°NNW
Pressure: 30.27"   Gusts: NA
Location:  35.92°N, 103.16°W
Report Text: KDHT 261853Z AUTO 33005KT 10SM CLR 08/M05 A3027 RMK AO2 SLP247 T00831050
Loading
Personal Weather Stations






























Interactive Weather Map New forecast layout! Learn more

10-Day Weather Forecast

Advertisements
Track Severe Weather on mobile